Time;durP1;ratioP1;P1;durP2;ratioP2;P2;SDS_P1;SDS_P2;PMS_P1;PMS_P2;Temp;Humidity;BMP_temperature;BMP_pressure;BME280_temperature;BME280_humidity;BME280_pressure;Samples;Min_cycle;Max_cycle;Signal;HPM_P1;HPM_P2
2023/01/18 09:43:30;;;;;;;;;;;7.60;60.40;;;;;;3310693;26;19934;-88
2023/01/18 09:45:55;;;;;;;;;;;7.70;60.50;;;;;;5074122;23;20336;-90
2023/01/18 09:48:27;;;;;;;;;;;7.70;60.50;;;;;;4995228;28;19937;-88
2023/01/18 09:50:54;;;;;;;;;;;7.70;60.40;;;;;;4998649;28;19914;-96
2023/01/18 09:53:50;;;;;;;;;;;7.70;60.60;;;;;;4980269;28;19960;-89
2023/01/18 09:56:16;;;;;;;;;;;7.80;60.50;;;;;;4962857;28;19989;-91
2023/01/18 09:59:02;;;;;;;;;;;7.80;60.50;;;;;;4972869;28;19957;-89
2023/01/18 10:01:30;;;;;;;;;;;7.90;60.40;;;;;;4974547;28;19960;-91
2023/01/18 10:03:59;;;;;;;;;;;7.90;60.40;;;;;;4972727;28;19945;-92
2023/01/18 10:06:28;;;;;;;;;;;8.00;60.40;;;;;;4973678;28;19930;-92
2023/01/18 10:09:00;;;;;;;;;;;8.10;60.40;;;;;;4976279;28;19910;-92
2023/01/18 10:11:46;;;;;;;;;;;8.20;60.40;;;;;;4974249;28;19926;-91
2023/01/18 10:14:31;;;;;;;;;;;8.20;60.40;;;;;;4970051;28;19926;-93
2023/01/18 10:17:01;;;;;;;;;;;8.30;60.30;;;;;;4970936;28;19921;-93
2023/01/18 10:19:28;;;;;;;;;;;8.40;60.50;;;;;;4977181;28;19994;-92
2023/01/18 10:21:54;;;;;;;;;;;8.50;60.40;;;;;;4977089;28;19910;-93
2023/01/18 10:24:59;;;;;;;;;;;8.60;60.50;;;;;;4974596;28;19922;-94
2023/01/18 10:27:57;;;;;;;;;;;8.60;60.30;;;;;;4972922;28;19933;-93
2023/01/18 10:30:48;;;;;;;;;;;8.60;60.00;;;;;;4974068;28;20297;-90
2023/01/18 10:33:33;;;;;;;;;;;;;;;;;;;;;
2023/01/18 10:36:43;;;;;;;;;;;8.60;60.10;;;;;;4979211;28;19924;-89
2023/01/18 10:39:40;;;;;;;;;;;8.70;60.40;;;;;;4979402;28;20879;-92
2023/01/18 10:45:26;;;;;;;;;;;9.00;61.00;;;;;;4937672;28;19926;-89
2023/01/18 10:48:18;;;;;;;;;;;9.20;60.80;;;;;;4984262;28;19969;-88
2023/01/18 10:50:50;;;;;;;;;;;9.40;60.80;;;;;;4976049;28;20359;-89
2023/01/18 10:53:19;;;;;;;;;;;9.50;60.80;;;;;;4980197;28;19918;-93
2023/01/18 10:56:02;;;;;;;;;;;9.80;60.50;;;;;;4982297;28;20284;-92
2023/01/18 10:58:41;;;;;;;;;;;9.90;60.70;;;;;;4979085;28;19910;-91
2023/01/18 11:01:43;;;;;;;;;;;;;;;;;;;;;
2023/01/18 11:07:40;;;;;;;;;;;10.40;59.20;;;;;;4943003;29;19927;-91
2023/01/18 11:10:33;;;;;;;;;;;10.40;59.10;;;;;;4922007;29;19917;-92
2023/01/18 11:13:07;;;;;;;;;;;10.40;59.00;;;;;;4943804;28;20397;-92
2023/01/18 11:25:30;;;;;;;;;;;;;;;;;;;;;
2023/01/18 12:16:05;;;;;;;;;;;10.30;59.10;;;;;;5233070;23;20405;-90
2023/01/18 13:42:24;;;;;;;;;;;8.70;60.40;;;;;;1302282;26;19976;-91
2023/01/18 14:19:21;;;;;;;;;;;;;;;;;;;;;
2023/01/18 14:28:16;;;;;;;;;;;8.00;60.70;;;;;;4923323;28;19930;-90
2023/01/18 14:39:32;;;;;;;;;;;7.80;60.60;;;;;;5003374;28;20001;-90
2023/01/18 14:42:10;;;;;;;;;;;7.80;60.60;;;;;;5011992;28;20016;-88
2023/01/18 14:45:17;;;;;;;;;;;7.70;60.50;;;;;;5005599;28;19977;-94
2023/01/18 14:51:11;;;;;;;;;;;7.70;60.60;;;;;;4898201;29;19979;-91
2023/01/18 14:54:07;;;;;;;;;;;7.60;60.50;;;;;;4889355;29;19923;-89
2023/01/18 14:57:08;;;;;;;;;;;7.60;60.50;;;;;;4933936;29;19934;-91
2023/01/18 15:03:13;;;;;;;;;;;7.50;60.30;;;;;;4946617;29;19978;-89
2023/01/18 15:05:41;;;;;;;;;;;7.40;60.20;;;;;;4933195;29;19987;-91
2023/01/18 15:08:07;;;;;;;;;;;7.40;60.30;;;;;;4970939;28;19925;-90
2023/01/18 15:10:44;;;;;;;;;;;;;;;;;;;;;
2023/01/18 15:13:25;;;;;;;;;;;;;;;;;;;;;
2023/01/18 15:15:55;;;;;;;;;;;7.30;59.70;;;;;;5006410;28;20012;-91
2023/01/18 15:18:33;;;;;;;;;;;;;;;;;;;;;
2023/01/18 15:21:20;;;;;;;;;;;7.10;59.40;;;;;;5011409;28;19913;-90
2023/01/18 15:23:45;;;;;;;;;;;7.00;59.50;;;;;;4998718;28;20237;-89
2023/01/18 15:26:21;;;;;;;;;;;7.00;59.50;;;;;;5014085;28;19916;-88
2023/01/18 15:29:33;;;;;;;;;;;7.00;59.50;;;;;;5013053;28;19920;-91
2023/01/18 15:32:03;;;;;;;;;;;6.80;59.60;;;;;;5008200;28;19924;-89
2023/01/18 15:37:31;;;;;;;;;;;6.80;59.50;;;;;;4990862;28;19926;-92
2023/01/18 15:40:13;;;;;;;;;;;;;;;;;;;;;
2023/01/18 15:42:56;;;;;;;;;;;6.60;59.10;;;;;;4993964;28;20016;-88
2023/01/18 15:55:13;;;;;;;;;;;6.30;58.80;;;;;;4961854;28;19922;-91
2023/01/18 15:58:11;;;;;;;;;;;;;;;;;;;;;
2023/01/18 16:03:48;;;;;;;;;;;6.10;58.30;;;;;;5009031;28;19957;-90
2023/01/18 16:06:31;;;;;;;;;;;;;;;;;;;;;
2023/01/18 16:09:09;;;;;;;;;;;6.00;58.30;;;;;;5012365;28;20352;-90
2023/01/18 16:11:58;;;;;;;;;;;5.90;58.70;;;;;;5003975;28;19941;-90
2023/01/18 16:14:26;;;;;;;;;;;5.80;59.00;;;;;;5013434;28;19918;-90
2023/01/18 16:17:22;;;;;;;;;;;;;;;;;;;;;
2023/01/18 16:19:50;;;;;;;;;;;5.80;59.30;;;;;;5019795;28;19940;-90
2023/01/18 16:22:23;;;;;;;;;;;5.70;59.30;;;;;;5016819;28;19921;-92
2023/01/18 16:24:54;;;;;;;;;;;5.70;59.10;;;;;;5017826;28;19917;-95
2023/01/18 16:27:26;;;;;;;;;;;5.70;59.10;;;;;;5009596;28;19926;-90
2023/01/18 16:30:02;;;;;;;;;;;5.70;59.20;;;;;;5011472;28;19913;-91
2023/01/18 16:32:45;;;;;;;;;;;5.70;59.40;;;;;;5006486;28;19963;-90
2023/01/18 16:35:38;;;;;;;;;;;;;;;;;;;;;
2023/01/18 16:38:08;;;;;;;;;;;5.70;59.00;;;;;;5005276;28;19910;-89
2023/01/18 16:40:48;;;;;;;;;;;5.60;58.90;;;;;;5008168;28;19920;-89
2023/01/18 16:43:19;;;;;;;;;;;5.60;58.90;;;;;;5006860;28;20284;-92
2023/01/18 16:45:46;;;;;;;;;;;5.50;59.00;;;;;;5014600;28;20335;-90
2023/01/18 16:48:27;;;;;;;;;;;5.50;59.10;;;;;;5019976;28;19925;-96
2023/01/18 16:50:54;;;;;;;;;;;5.50;59.00;;;;;;5009174;28;19909;-90
2023/01/18 16:53:20;;;;;;;;;;;5.50;59.00;;;;;;5015098;28;19917;-92
2023/01/18 16:58:54;;;;;;;;;;;5.50;59.00;;;;;;5008602;28;19922;-91
2023/01/18 17:01:31;;;;;;;;;;;5.50;59.00;;;;;;5019424;28;19917;-89
2023/01/18 17:04:30;;;;;;;;;;;;;;;;;;;;;
2023/01/18 17:07:09;;;;;;;;;;;5.40;59.30;;;;;;5021287;28;20020;-90
2023/01/18 17:12:02;;;;;;;;;;;5.40;59.20;;;;;;5020644;28;19909;-90
2023/01/18 17:14:41;;;;;;;;;;;5.40;59.10;;;;;;4979546;28;19972;-91
2023/01/18 17:22:26;;;;;;;;;;;5.40;59.40;;;;;;4968111;28;19933;-90
2023/01/18 17:25:21;;;;;;;;;;;5.30;59.30;;;;;;4955220;28;19918;-88
2023/01/18 17:28:14;;;;;;;;;;;5.30;59.20;;;;;;4982905;28;19925;-89
2023/01/18 17:33:48;;;;;;;;;;;5.30;60.10;;;;;;4963228;28;19960;-89
2023/01/18 17:36:44;;;;;;;;;;;5.30;60.30;;;;;;4977558;28;19922;-88
2023/01/18 17:39:18;;;;;;;;;;;5.40;60.10;;;;;;4972171;28;20416;-89
2023/01/18 17:41:57;;;;;;;;;;;5.40;60.10;;;;;;4975012;28;19914;-96
2023/01/18 17:44:37;;;;;;;;;;;5.40;60.00;;;;;;4954179;28;19918;-94
2023/01/18 17:47:06;;;;;;;;;;;5.40;59.90;;;;;;4957669;28;19968;-95
2023/01/18 17:49:34;;;;;;;;;;;5.40;60.50;;;;;;4992213;28;19980;-94
2023/01/18 17:55:06;;;;;;;;;;;5.50;60.40;;;;;;4986667;28;19918;-90
2023/01/18 17:57:52;;;;;;;;;;;5.50;60.40;;;;;;4990895;28;19918;-90
2023/01/18 18:00:23;;;;;;;;;;;5.60;60.30;;;;;;4984315;28;19975;-91
2023/01/18 18:02:58;;;;;;;;;;;5.50;60.20;;;;;;4983799;28;19956;-92
2023/01/18 18:08:10;;;;;;;;;;;5.60;59.60;;;;;;4993961;28;19930;-94
2023/01/18 18:10:35;;;;;;;;;;;5.50;59.40;;;;;;4982869;28;19924;-89
2023/01/18 18:13:06;;;;;;;;;;;5.50;59.50;;;;;;4976401;28;19926;-91
2023/01/18 18:15:32;;;;;;;;;;;5.40;59.90;;;;;;4977114;28;20594;-89
2023/01/18 18:17:57;;;;;;;;;;;5.50;60.20;;;;;;4990997;28;20060;-90
2023/01/18 18:23:22;;;;;;;;;;;5.50;59.90;;;;;;4966764;28;20263;-88
2023/01/18 18:26:19;;;;;;;;;;;5.50;60.00;;;;;;5000623;28;19918;-95
2023/01/18 18:34:49;;;;;;;;;;;5.50;59.30;;;;;;4972151;28;19924;-89
2023/01/18 18:37:22;;;;;;;;;;;5.50;59.50;;;;;;4981347;28;19928;-92
2023/01/18 18:40:08;;;;;;;;;;;5.50;59.50;;;;;;4975863;28;19922;-91
2023/01/18 18:42:35;;;;;;;;;;;5.40;60.10;;;;;;4962723;28;19914;-91
2023/01/18 18:48:55;;;;;;;;;;;;;;;;;;;;;
2023/01/18 18:51:36;;;;;;;;;;;5.50;59.80;;;;;;4975129;28;20439;-89
2023/01/18 18:54:07;;;;;;;;;;;5.50;59.70;;;;;;4971784;28;19937;-94
2023/01/18 18:56:41;;;;;;;;;;;5.50;60.10;;;;;;4941535;28;20037;-89
2023/01/18 18:59:34;;;;;;;;;;;5.50;60.20;;;;;;4954875;28;19918;-91
2023/01/18 19:02:00;;;;;;;;;;;5.60;60.10;;;;;;4935087;29;20392;-90
2023/01/18 19:04:32;;;;;;;;;;;5.50;59.90;;;;;;4954128;29;19974;-93
2023/01/18 21:27:41;;;;;;;;;;;;;;;;;;;;;
2023/01/18 21:30:43;;;;;;;;;;;;;;;;;;;;;
2023/01/18 21:33:10;;;;;;;;;;;6.10;59.20;;;;;;4948065;28;19918;-94
2023/01/18 21:35:45;;;;;;;;;;;;;;;;;;;;;
2023/01/18 21:38:34;;;;;;;;;;;6.10;58.90;;;;;;4972115;28;19922;-89
2023/01/18 21:47:05;;;;;;;;;;;6.10;58.80;;;;;;4975307;28;20384;-90
2023/01/18 21:55:21;;;;;;;;;;;6.00;58.50;;;;;;4974548;28;19917;-93
2023/01/18 22:01:00;;;;;;;;;;;6.10;58.80;;;;;;4976458;28;19922;-91
2023/01/18 22:03:37;;;;;;;;;;;6.00;58.80;;;;;;4974478;28;20274;-90
2023/01/18 22:11:16;;;;;;;;;;;6.20;59.20;;;;;;4960746;28;19942;-89
2023/01/18 22:17:24;;;;;;;;;;;;;;;;;;;;;
2023/01/18 22:23:27;;;;;;;;;;;6.30;58.60;;;;;;4898272;29;20275;-88
2023/01/18 22:26:06;;;;;;;;;;;6.30;58.50;;;;;;4949863;29;20511;-88
2023/01/18 22:28:32;;;;;;;;;;;6.30;58.90;;;;;;4968261;28;20297;-90
2023/01/18 22:31:13;;;;;;;;;;;6.40;59.00;;;;;;4979020;28;19910;-91
2023/01/18 22:33:39;;;;;;;;;;;6.50;59.00;;;;;;4978135;28;19922;-92
2023/01/18 22:36:05;;;;;;;;;;;6.50;58.80;;;;;;4972709;28;19922;-87
2023/01/18 22:38:43;;;;;;;;;;;;;;;;;;;;;
2023/01/18 22:41:22;;;;;;;;;;;6.50;59.00;;;;;;4977323;28;19981;-89
2023/01/18 22:43:51;;;;;;;;;;;6.70;59.10;;;;;;4970823;28;19910;-95
2023/01/18 22:46:19;;;;;;;;;;;6.70;59.10;;;;;;4968362;28;20017;-92
2023/01/18 22:48:50;;;;;;;;;;;6.80;59.20;;;;;;4964281;28;19972;-89
2023/01/18 22:51:19;;;;;;;;;;;6.80;59.00;;;;;;4972745;28;19954;-89
2023/01/18 22:53:45;;;;;;;;;;;6.80;59.10;;;;;;4952429;28;19926;-95
2023/01/18 22:56:12;;;;;;;;;;;6.80;59.10;;;;;;4950308;28;19915;-94
2023/01/18 22:58:37;;;;;;;;;;;6.90;59.10;;;;;;4955327;28;20326;-93
2023/01/18 23:01:15;;;;;;;;;;;7.00;59.20;;;;;;4956242;28;19922;-92
2023/01/18 23:03:41;;;;;;;;;;;7.00;59.10;;;;;;4952322;28;20017;-90
2023/01/18 23:06:07;;;;;;;;;;;7.10;58.90;;;;;;4952995;28;19949;-91
2023/01/18 23:08:41;;;;;;;;;;;7.00;58.60;;;;;;4940332;28;19934;-89
2023/01/18 23:11:10;;;;;;;;;;;7.00;58.30;;;;;;4941398;28;19958;-91
2023/01/18 23:13:36;;;;;;;;;;;6.90;58.10;;;;;;4953871;28;20001;-92
2023/01/18 23:18:56;;;;;;;;;;;6.80;58.00;;;;;;4956155;29;19926;-90
2023/01/18 23:21:21;;;;;;;;;;;6.70;58.20;;;;;;4952319;28;19911;-89
2023/01/18 23:23:47;;;;;;;;;;;6.80;58.20;;;;;;4954312;28;19930;-89
2023/01/18 23:26:13;;;;;;;;;;;6.70;58.20;;;;;;4953630;28;19911;-90
2023/01/18 23:28:40;;;;;;;;;;;6.70;58.20;;;;;;4955006;28;19961;-90
2023/01/18 23:31:07;;;;;;;;;;;6.70;58.20;;;;;;4956651;28;20346;-90
2023/01/18 23:33:32;;;;;;;;;;;6.70;58.20;;;;;;4954389;28;19918;-89
2023/01/18 23:35:58;;;;;;;;;;;6.70;58.40;;;;;;4956198;28;19910;-89
2023/01/18 23:38:24;;;;;;;;;;;6.70;58.50;;;;;;4957837;28;19918;-93
2023/01/18 23:54:31;;;;;;;;;;;6.90;59.10;;;;;;4935811;29;19930;-89
2023/01/18 23:56:56;;;;;;;;;;;6.80;58.80;;;;;;4935173;29;19911;-94
2023/01/18 23:59:22;;;;;;;;;;;6.80;58.80;;;;;;4950792;28;19919;-89
